sensor_id;sensor_type;location;lat;lon;timestamp;P1;durP1;ratioP1;P2;durP2;ratioP2
10009;SDS011;5044;48.652;9.250;2022-08-21T00:00:33;2.60;;;1.50;;
10009;SDS011;5044;48.652;9.250;2022-08-21T00:03:02;0.70;;;0.70;;
10009;SDS011;5044;48.652;9.250;2022-08-21T00:05:31;1.25;;;1.15;;
10009;SDS011;5044;48.652;9.250;2022-08-21T00:08:05;1.42;;;1.00;;
10009;SDS011;5044;48.652;9.250;2022-08-21T00:10:33;4.93;;;1.30;;
10009;SDS011;5044;48.652;9.250;2022-08-21T00:13:02;3.97;;;1.02;;
10009;SDS011;5044;48.652;9.250;2022-08-21T00:15:34;2.63;;;1.08;;
10009;SDS011;5044;48.652;9.250;2022-08-21T00:18:03;2.55;;;1.40;;
10009;SDS011;5044;48.652;9.250;2022-08-21T00:20:31;2.53;;;1.00;;
10009;SDS011;5044;48.652;9.250;2022-08-21T00:23:01;1.83;;;0.85;;
10009;SDS011;5044;48.652;9.250;2022-08-21T00:25:34;1.98;;;0.88;;
10009;SDS011;5044;48.652;9.250;2022-08-21T00:28:02;1.30;;;0.93;;
10009;SDS011;5044;48.652;9.250;2022-08-21T00:30:32;3.17;;;1.05;;
10009;SDS011;5044;48.652;9.250;2022-08-21T00:33:01;2.65;;;0.90;;
10009;SDS011;5044;48.652;9.250;2022-08-21T00:35:30;2.08;;;0.90;;
10009;SDS011;5044;48.652;9.250;2022-08-21T00:37:59;4.90;;;0.90;;
10009;SDS011;5044;48.652;9.250;2022-08-21T00:40:27;1.00;;;0.73;;
10009;SDS011;5044;48.652;9.250;2022-08-21T00:43:00;1.10;;;1.00;;
10009;SDS011;5044;48.652;9.250;2022-08-21T00:45:34;2.53;;;1.30;;
10009;SDS011;5044;48.652;9.250;2022-08-21T00:48:03;1.35;;;0.90;;
10009;SDS011;5044;48.652;9.250;2022-08-21T00:50:31;1.10;;;0.80;;
10009;SDS011;5044;48.652;9.250;2022-08-21T00:53:02;1.92;;;1.08;;
10009;SDS011;5044;48.652;9.250;2022-08-21T00:55:32;2.58;;;1.15;;
10009;SDS011;5044;48.652;9.250;2022-08-21T00:58:02;1.48;;;0.93;;
10009;SDS011;5044;48.652;9.250;2022-08-21T01:03:04;3.15;;;1.17;;
10009;SDS011;5044;48.652;9.250;2022-08-21T01:05:35;1.63;;;1.15;;
10009;SDS011;5044;48.652;9.250;2022-08-21T01:08:04;1.30;;;0.90;;
10009;SDS011;5044;48.652;9.250;2022-08-21T01:13:05;1.45;;;1.35;;
10009;SDS011;5044;48.652;9.250;2022-08-21T01:15:35;1.92;;;1.50;;
10009;SDS011;5044;48.652;9.250;2022-08-21T01:18:06;1.77;;;0.95;;
10009;SDS011;5044;48.652;9.250;2022-08-21T01:20:36;1.20;;;0.90;;
10009;SDS011;5044;48.652;9.250;2022-08-21T01:23:06;1.50;;;0.98;;
10009;SDS011;5044;48.652;9.250;2022-08-21T01:25:36;0.73;;;0.68;;
10009;SDS011;5044;48.652;9.250;2022-08-21T01:28:06;0.93;;;0.73;;
10009;SDS011;5044;48.652;9.250;2022-08-21T01:30:39;1.30;;;0.70;;
10009;SDS011;5044;48.652;9.250;2022-08-21T01:38:20;0.88;;;0.77;;
10009;SDS011;5044;48.652;9.250;2022-08-21T01:40:48;1.15;;;0.80;;
10009;SDS011;5044;48.652;9.250;2022-08-21T01:43:17;1.58;;;0.90;;
10009;SDS011;5044;48.652;9.250;2022-08-21T01:45:45;1.55;;;1.02;;
10009;SDS011;5044;48.652;9.250;2022-08-21T01:48:13;1.20;;;0.80;;
10009;SDS011;5044;48.652;9.250;2022-08-21T01:50:40;1.45;;;1.00;;
10009;SDS011;5044;48.652;9.250;2022-08-21T01:53:08;1.70;;;1.02;;
10009;SDS011;5044;48.652;9.250;2022-08-21T01:55:38;0.98;;;0.80;;
10009;SDS011;5044;48.652;9.250;2022-08-21T01:58:06;1.15;;;0.80;;
10009;SDS011;5044;48.652;9.250;2022-08-21T02:00:34;1.40;;;0.98;;
10009;SDS011;5044;48.652;9.250;2022-08-21T02:03:16;1.42;;;1.20;;
10009;SDS011;5044;48.652;9.250;2022-08-21T02:05:46;2.03;;;1.30;;
10009;SDS011;5044;48.652;9.250;2022-08-21T02:08:15;3.25;;;1.10;;
10009;SDS011;5044;48.652;9.250;2022-08-21T02:10:45;1.63;;;1.08;;
10009;SDS011;5044;48.652;9.250;2022-08-21T02:13:12;1.33;;;1.10;;
10009;SDS011;5044;48.652;9.250;2022-08-21T02:15:39;1.27;;;1.13;;
10009;SDS011;5044;48.652;9.250;2022-08-21T02:18:07;1.42;;;1.10;;
10009;SDS011;5044;48.652;9.250;2022-08-21T02:20:36;2.78;;;1.17;;
10009;SDS011;5044;48.652;9.250;2022-08-21T02:23:06;1.55;;;1.10;;
10009;SDS011;5044;48.652;9.250;2022-08-21T02:25:35;1.20;;;0.80;;
10009;SDS011;5044;48.652;9.250;2022-08-21T02:28:07;1.27;;;0.80;;
10009;SDS011;5044;48.652;9.250;2022-08-21T02:30:38;3.60;;;1.13;;
10009;SDS011;5044;48.652;9.250;2022-08-21T02:33:07;1.27;;;0.90;;
10009;SDS011;5044;48.652;9.250;2022-08-21T02:35:39;1.50;;;0.90;;
10009;SDS011;5044;48.652;9.250;2022-08-21T02:38:10;2.20;;;1.10;;
10009;SDS011;5044;48.652;9.250;2022-08-21T02:40:39;1.42;;;0.90;;
10009;SDS011;5044;48.652;9.250;2022-08-21T02:43:11;1.88;;;1.58;;
10009;SDS011;5044;48.652;9.250;2022-08-21T02:45:38;1.17;;;0.82;;
10009;SDS011;5044;48.652;9.250;2022-08-21T02:48:06;1.30;;;0.90;;
10009;SDS011;5044;48.652;9.250;2022-08-21T02:50:35;2.65;;;1.10;;
10009;SDS011;5044;48.652;9.250;2022-08-21T02:53:08;4.07;;;1.30;;
10009;SDS011;5044;48.652;9.250;2022-08-21T02:55:38;6.90;;;1.88;;
10009;SDS011;5044;48.652;9.250;2022-08-21T02:58:07;1.50;;;0.80;;
10009;SDS011;5044;48.652;9.250;2022-08-21T03:00:39;2.08;;;1.17;;
10009;SDS011;5044;48.652;9.250;2022-08-21T03:05:38;1.20;;;0.80;;
10009;SDS011;5044;48.652;9.250;2022-08-21T03:08:07;2.20;;;1.00;;
10009;SDS011;5044;48.652;9.250;2022-08-21T03:10:40;1.20;;;1.10;;
10009;SDS011;5044;48.652;9.250;2022-08-21T03:13:11;1.67;;;1.08;;
10009;SDS011;5044;48.652;9.250;2022-08-21T03:15:42;3.35;;;1.45;;
10009;SDS011;5044;48.652;9.250;2022-08-21T03:18:10;1.58;;;1.48;;
10009;SDS011;5044;48.652;9.250;2022-08-21T03:20:40;1.42;;;1.00;;
10009;SDS011;5044;48.652;9.250;2022-08-21T03:23:11;1.05;;;0.80;;
10009;SDS011;5044;48.652;9.250;2022-08-21T03:25:39;2.33;;;1.35;;
10009;SDS011;5044;48.652;9.250;2022-08-21T03:28:07;1.17;;;0.85;;
10009;SDS011;5044;48.652;9.250;2022-08-21T03:30:36;4.25;;;0.90;;
10009;SDS011;5044;48.652;9.250;2022-08-21T03:33:06;1.30;;;1.13;;
10009;SDS011;5044;48.652;9.250;2022-08-21T03:35:34;1.85;;;0.90;;
10009;SDS011;5044;48.652;9.250;2022-08-21T03:38:02;1.67;;;0.98;;
10009;SDS011;5044;48.652;9.250;2022-08-21T03:40:29;1.70;;;0.90;;
10009;SDS011;5044;48.652;9.250;2022-08-21T03:42:59;3.63;;;1.23;;
10009;SDS011;5044;48.652;9.250;2022-08-21T03:45:28;5.35;;;1.20;;
10009;SDS011;5044;48.652;9.250;2022-08-21T03:47:57;1.33;;;1.00;;
10009;SDS011;5044;48.652;9.250;2022-08-21T03:50:28;4.00;;;1.20;;
10009;SDS011;5044;48.652;9.250;2022-08-21T03:52:59;1.55;;;1.25;;
10009;SDS011;5044;48.652;9.250;2022-08-21T03:55:32;3.80;;;1.10;;
10009;SDS011;5044;48.652;9.250;2022-08-21T03:58:01;1.42;;;0.77;;
10009;SDS011;5044;48.652;9.250;2022-08-21T04:00:30;2.95;;;1.05;;
10009;SDS011;5044;48.652;9.250;2022-08-21T04:02:57;1.25;;;1.10;;
10009;SDS011;5044;48.652;9.250;2022-08-21T04:05:25;1.30;;;1.05;;
10009;SDS011;5044;48.652;9.250;2022-08-21T04:08:01;2.35;;;1.33;;
10009;SDS011;5044;48.652;9.250;2022-08-21T04:10:33;3.20;;;1.05;;
10009;SDS011;5044;48.652;9.250;2022-08-21T04:13:04;3.08;;;1.20;;
10009;SDS011;5044;48.652;9.250;2022-08-21T04:15:33;2.47;;;1.20;;
10009;SDS011;5044;48.652;9.250;2022-08-21T04:18:02;1.15;;;1.05;;
10009;SDS011;5044;48.652;9.250;2022-08-21T04:20:29;2.65;;;1.52;;
10009;SDS011;5044;48.652;9.250;2022-08-21T04:22:58;2.47;;;1.10;;
10009;SDS011;5044;48.652;9.250;2022-08-21T04:25:25;1.55;;;1.10;;
10009;SDS011;5044;48.652;9.250;2022-08-21T04:27:55;1.13;;;1.00;;
10009;SDS011;5044;48.652;9.250;2022-08-21T04:30:25;2.10;;;1.05;;
10009;SDS011;5044;48.652;9.250;2022-08-21T04:32:52;2.00;;;1.05;;
10009;SDS011;5044;48.652;9.250;2022-08-21T04:35:20;2.67;;;1.20;;
10009;SDS011;5044;48.652;9.250;2022-08-21T04:37:49;1.10;;;1.00;;
10009;SDS011;5044;48.652;9.250;2022-08-21T04:40:30;1.45;;;0.98;;
10009;SDS011;5044;48.652;9.250;2022-08-21T04:42:58;1.58;;;0.93;;
10009;SDS011;5044;48.652;9.250;2022-08-21T04:45:29;2.00;;;1.50;;
10009;SDS011;5044;48.652;9.250;2022-08-21T04:47:58;4.43;;;1.30;;
10009;SDS011;5044;48.652;9.250;2022-08-21T04:50:28;2.65;;;1.00;;
10009;SDS011;5044;48.652;9.250;2022-08-21T04:52:57;1.20;;;1.00;;
10009;SDS011;5044;48.652;9.250;2022-08-21T04:55:31;3.55;;;1.30;;
10009;SDS011;5044;48.652;9.250;2022-08-21T04:57:59;3.60;;;1.23;;
10009;SDS011;5044;48.652;9.250;2022-08-21T05:00:26;1.98;;;1.10;;
10009;SDS011;5044;48.652;9.250;2022-08-21T05:02:56;2.30;;;1.15;;
10009;SDS011;5044;48.652;9.250;2022-08-21T05:05:25;1.65;;;1.30;;
10009;SDS011;5044;48.652;9.250;2022-08-21T05:07:55;2.03;;;1.27;;
10009;SDS011;5044;48.652;9.250;2022-08-21T05:10:23;2.05;;;1.00;;
10009;SDS011;5044;48.652;9.250;2022-08-21T05:12:56;2.50;;;1.20;;
10009;SDS011;5044;48.652;9.250;2022-08-21T05:15:24;1.73;;;1.30;;
10009;SDS011;5044;48.652;9.250;2022-08-21T05:17:59;2.03;;;1.17;;
10009;SDS011;5044;48.652;9.250;2022-08-21T05:20:27;1.48;;;0.93;;
10009;SDS011;5044;48.652;9.250;2022-08-21T05:22:54;1.95;;;1.25;;
10009;SDS011;5044;48.652;9.250;2022-08-21T05:25:22;1.55;;;1.13;;
10009;SDS011;5044;48.652;9.250;2022-08-21T05:27:49;1.63;;;1.52;;
10009;SDS011;5044;48.652;9.250;2022-08-21T05:30:22;1.95;;;1.40;;
10009;SDS011;5044;48.652;9.250;2022-08-21T05:32:55;1.10;;;1.00;;
10009;SDS011;5044;48.652;9.250;2022-08-21T05:35:22;2.53;;;1.52;;
10009;SDS011;5044;48.652;9.250;2022-08-21T05:37:50;4.75;;;1.38;;
10009;SDS011;5044;48.652;9.250;2022-08-21T05:40:17;1.38;;;1.15;;
10009;SDS011;5044;48.652;9.250;2022-08-21T05:42:45;1.85;;;1.08;;
10009;SDS011;5044;48.652;9.250;2022-08-21T05:45:16;1.58;;;1.23;;
10009;SDS011;5044;48.652;9.250;2022-08-21T05:47:44;3.20;;;1.63;;
10009;SDS011;5044;48.652;9.250;2022-08-21T05:50:11;3.58;;;1.60;;
10009;SDS011;5044;48.652;9.250;2022-08-21T05:52:38;3.45;;;2.25;;
10009;SDS011;5044;48.652;9.250;2022-08-21T05:55:20;2.13;;;1.30;;
10009;SDS011;5044;48.652;9.250;2022-08-21T05:57:48;5.80;;;1.83;;
10009;SDS011;5044;48.652;9.250;2022-08-21T06:00:18;1.70;;;1.48;;
10009;SDS011;5044;48.652;9.250;2022-08-21T06:02:49;2.42;;;1.77;;
10009;SDS011;5044;48.652;9.250;2022-08-21T06:05:17;2.30;;;1.38;;
10009;SDS011;5044;48.652;9.250;2022-08-21T06:07:44;2.17;;;1.45;;
10009;SDS011;5044;48.652;9.250;2022-08-21T06:10:13;2.20;;;1.27;;
10009;SDS011;5044;48.652;9.250;2022-08-21T06:12:43;1.63;;;1.45;;
10009;SDS011;5044;48.652;9.250;2022-08-21T06:15:11;6.30;;;1.58;;
10009;SDS011;5044;48.652;9.250;2022-08-21T06:17:41;3.78;;;2.00;;
10009;SDS011;5044;48.652;9.250;2022-08-21T06:20:12;3.45;;;1.13;;
10009;SDS011;5044;48.652;9.250;2022-08-21T06:22:42;2.92;;;1.65;;
10009;SDS011;5044;48.652;9.250;2022-08-21T06:25:12;2.22;;;1.50;;
10009;SDS011;5044;48.652;9.250;2022-08-21T06:27:45;2.15;;;1.23;;
10009;SDS011;5044;48.652;9.250;2022-08-21T06:30:14;2.70;;;1.27;;
10009;SDS011;5044;48.652;9.250;2022-08-21T06:32:51;1.63;;;1.25;;
10009;SDS011;5044;48.652;9.250;2022-08-21T06:35:18;1.30;;;1.15;;
10009;SDS011;5044;48.652;9.250;2022-08-21T06:37:47;4.75;;;1.75;;
10009;SDS011;5044;48.652;9.250;2022-08-21T06:40:20;3.45;;;1.85;;
10009;SDS011;5044;48.652;9.250;2022-08-21T06:42:48;2.55;;;1.48;;
10009;SDS011;5044;48.652;9.250;2022-08-21T06:45:29;2.15;;;1.33;;
10009;SDS011;5044;48.652;9.250;2022-08-21T06:47:59;2.85;;;1.50;;
10009;SDS011;5044;48.652;9.250;2022-08-21T06:50:28;3.67;;;1.48;;
10009;SDS011;5044;48.652;9.250;2022-08-21T06:53:00;4.10;;;1.55;;
10009;SDS011;5044;48.652;9.250;2022-08-21T06:55:30;2.13;;;1.20;;
10009;SDS011;5044;48.652;9.250;2022-08-21T06:57:57;3.40;;;1.40;;
10009;SDS011;5044;48.652;9.250;2022-08-21T07:00:25;3.33;;;2.20;;
10009;SDS011;5044;48.652;9.250;2022-08-21T07:02:54;3.80;;;2.53;;
10009;SDS011;5044;48.652;9.250;2022-08-21T07:05:24;1.50;;;1.40;;
10009;SDS011;5044;48.652;9.250;2022-08-21T07:07:53;1.60;;;1.23;;
10009;SDS011;5044;48.652;9.250;2022-08-21T07:10:21;3.55;;;1.38;;
10009;SDS011;5044;48.652;9.250;2022-08-21T07:12:49;2.03;;;1.17;;
10009;SDS011;5044;48.652;9.250;2022-08-21T07:15:17;1.90;;;1.23;;
10009;SDS011;5044;48.652;9.250;2022-08-21T07:17:44;5.88;;;1.17;;
10009;SDS011;5044;48.652;9.250;2022-08-21T07:20:11;1.90;;;1.10;;
10009;SDS011;5044;48.652;9.250;2022-08-21T07:22:40;1.98;;;1.20;;
10009;SDS011;5044;48.652;9.250;2022-08-21T07:25:08;1.67;;;1.23;;
10009;SDS011;5044;48.652;9.250;2022-08-21T07:27:35;3.83;;;1.63;;
10009;SDS011;5044;48.652;9.250;2022-08-21T07:30:03;6.18;;;1.17;;
10009;SDS011;5044;48.652;9.250;2022-08-21T07:32:31;1.88;;;1.20;;
10009;SDS011;5044;48.652;9.250;2022-08-21T07:34:58;3.22;;;1.45;;
10009;SDS011;5044;48.652;9.250;2022-08-21T07:37:25;1.55;;;0.95;;
10009;SDS011;5044;48.652;9.250;2022-08-21T07:39:54;1.88;;;1.63;;
10009;SDS011;5044;48.652;9.250;2022-08-21T07:42:21;3.22;;;1.70;;
10009;SDS011;5044;48.652;9.250;2022-08-21T07:44:48;4.93;;;1.23;;
10009;SDS011;5044;48.652;9.250;2022-08-21T07:47:15;1.30;;;1.13;;
10009;SDS011;5044;48.652;9.250;2022-08-21T07:49:42;1.92;;;1.38;;
10009;SDS011;5044;48.652;9.250;2022-08-21T07:52:11;2.65;;;1.60;;
10009;SDS011;5044;48.652;9.250;2022-08-21T07:54:38;2.13;;;1.58;;
10009;SDS011;5044;48.652;9.250;2022-08-21T07:57:06;1.30;;;1.20;;
10009;SDS011;5044;48.652;9.250;2022-08-21T07:59:34;3.78;;;1.42;;
10009;SDS011;5044;48.652;9.250;2022-08-21T08:02:01;2.50;;;1.70;;
10009;SDS011;5044;48.652;9.250;2022-08-21T08:04:27;3.55;;;1.25;;
10009;SDS011;5044;48.652;9.250;2022-08-21T08:06:54;3.20;;;1.60;;
10009;SDS011;5044;48.652;9.250;2022-08-21T08:09:21;2.55;;;1.35;;
10009;SDS011;5044;48.652;9.250;2022-08-21T08:11:48;2.92;;;1.70;;
10009;SDS011;5044;48.652;9.250;2022-08-21T08:14:17;4.60;;;1.30;;
10009;SDS011;5044;48.652;9.250;2022-08-21T08:16:44;2.85;;;1.20;;
10009;SDS011;5044;48.652;9.250;2022-08-21T08:19:11;2.88;;;1.70;;
10009;SDS011;5044;48.652;9.250;2022-08-21T08:21:38;4.10;;;1.55;;
10009;SDS011;5044;48.652;9.250;2022-08-21T08:24:05;4.43;;;2.08;;
10009;SDS011;5044;48.652;9.250;2022-08-21T08:26:32;9.48;;;1.80;;
10009;SDS011;5044;48.652;9.250;2022-08-21T08:28:59;2.25;;;1.60;;
10009;SDS011;5044;48.652;9.250;2022-08-21T08:31:27;1.83;;;1.30;;
10009;SDS011;5044;48.652;9.250;2022-08-21T08:33:54;3.33;;;1.77;;
10009;SDS011;5044;48.652;9.250;2022-08-21T08:36:21;3.03;;;1.77;;
10009;SDS011;5044;48.652;9.250;2022-08-21T08:38:58;6.78;;;2.17;;
10009;SDS011;5044;48.652;9.250;2022-08-21T08:41:25;3.70;;;2.10;;
10009;SDS011;5044;48.652;9.250;2022-08-21T08:43:53;3.80;;;1.50;;
10009;SDS011;5044;48.652;9.250;2022-08-21T08:46:25;2.45;;;1.83;;
10009;SDS011;5044;48.652;9.250;2022-08-21T08:48:59;3.22;;;1.73;;
10009;SDS011;5044;48.652;9.250;2022-08-21T08:51:30;2.08;;;1.42;;
10009;SDS011;5044;48.652;9.250;2022-08-21T08:54:10;4.88;;;2.00;;
10009;SDS011;5044;48.652;9.250;2022-08-21T08:56:40;3.25;;;1.65;;
10009;SDS011;5044;48.652;9.250;2022-08-21T08:59:08;4.72;;;1.60;;
10009;SDS011;5044;48.652;9.250;2022-08-21T09:01:43;6.00;;;1.73;;
10009;SDS011;5044;48.652;9.250;2022-08-21T09:04:10;2.38;;;1.70;;
10009;SDS011;5044;48.652;9.250;2022-08-21T09:06:46;2.87;;;1.70;;
10009;SDS011;5044;48.652;9.250;2022-08-21T09:09:25;3.70;;;1.75;;
10009;SDS011;5044;48.652;9.250;2022-08-21T09:12:00;3.05;;;1.50;;
10009;SDS011;5044;48.652;9.250;2022-08-21T09:17:11;3.85;;;2.20;;
10009;SDS011;5044;48.652;9.250;2022-08-21T09:19:50;2.63;;;1.58;;
10009;SDS011;5044;48.652;9.250;2022-08-21T09:22:31;5.80;;;1.73;;
10009;SDS011;5044;48.652;9.250;2022-08-21T09:25:08;5.72;;;2.92;;
10009;SDS011;5044;48.652;9.250;2022-08-21T09:27:42;2.42;;;1.60;;
10009;SDS011;5044;48.652;9.250;2022-08-21T09:30:09;2.85;;;1.58;;
10009;SDS011;5044;48.652;9.250;2022-08-21T09:32:39;4.43;;;2.10;;
10009;SDS011;5044;48.652;9.250;2022-08-21T09:35:07;4.15;;;1.95;;
10009;SDS011;5044;48.652;9.250;2022-08-21T09:37:45;3.28;;;1.90;;
10009;SDS011;5044;48.652;9.250;2022-08-21T09:40:15;4.40;;;2.08;;
10009;SDS011;5044;48.652;9.250;2022-08-21T09:42:57;3.50;;;2.17;;
10009;SDS011;5044;48.652;9.250;2022-08-21T09:45:26;4.20;;;1.88;;
10009;SDS011;5044;48.652;9.250;2022-08-21T09:47:55;3.67;;;2.13;;
10009;SDS011;5044;48.652;9.250;2022-08-21T09:50:23;4.88;;;2.38;;
10009;SDS011;5044;48.652;9.250;2022-08-21T09:52:53;2.97;;;2.00;;
10009;SDS011;5044;48.652;9.250;2022-08-21T09:55:27;4.80;;;2.25;;
10009;SDS011;5044;48.652;9.250;2022-08-21T09:58:16;4.55;;;2.63;;
10009;SDS011;5044;48.652;9.250;2022-08-21T10:00:44;3.97;;;2.20;;
10009;SDS011;5044;48.652;9.250;2022-08-21T10:03:17;5.30;;;1.90;;
10009;SDS011;5044;48.652;9.250;2022-08-21T10:05:50;3.00;;;1.95;;
10009;SDS011;5044;48.652;9.250;2022-08-21T10:08:21;6.30;;;2.00;;
10009;SDS011;5044;48.652;9.250;2022-08-21T10:10:50;4.28;;;2.45;;
10009;SDS011;5044;48.652;9.250;2022-08-21T10:13:21;3.63;;;2.13;;
10009;SDS011;5044;48.652;9.250;2022-08-21T10:15:58;2.70;;;1.92;;
10009;SDS011;5044;48.652;9.250;2022-08-21T10:18:46;4.60;;;2.40;;
10009;SDS011;5044;48.652;9.250;2022-08-21T10:21:23;2.75;;;1.73;;
10009;SDS011;5044;48.652;9.250;2022-08-21T10:23:58;5.90;;;1.88;;
10009;SDS011;5044;48.652;9.250;2022-08-21T10:26:35;3.50;;;1.90;;
10009;SDS011;5044;48.652;9.250;2022-08-21T10:29:17;3.13;;;1.83;;
10009;SDS011;5044;48.652;9.250;2022-08-21T10:31:53;3.83;;;1.70;;
10009;SDS011;5044;48.652;9.250;2022-08-21T10:34:33;5.40;;;2.10;;
10009;SDS011;5044;48.652;9.250;2022-08-21T10:37:18;3.33;;;1.52;;
10009;SDS011;5044;48.652;9.250;2022-08-21T10:39:58;3.35;;;1.83;;
10009;SDS011;5044;48.652;9.250;2022-08-21T10:42:35;3.53;;;1.80;;
10009;SDS011;5044;48.652;9.250;2022-08-21T10:45:09;3.90;;;2.08;;
10009;SDS011;5044;48.652;9.250;2022-08-21T10:47:42;3.45;;;1.90;;
10009;SDS011;5044;48.652;9.250;2022-08-21T10:50:19;4.88;;;2.03;;
10009;SDS011;5044;48.652;9.250;2022-08-21T10:53:07;3.90;;;2.00;;
10009;SDS011;5044;48.652;9.250;2022-08-21T10:55:43;5.35;;;1.83;;
10009;SDS011;5044;48.652;9.250;2022-08-21T10:58:14;4.63;;;1.60;;
10009;SDS011;5044;48.652;9.250;2022-08-21T11:00:56;6.93;;;2.25;;
10009;SDS011;5044;48.652;9.250;2022-08-21T11:03:32;4.28;;;2.10;;
10009;SDS011;5044;48.652;9.250;2022-08-21T11:06:05;5.45;;;2.20;;
10009;SDS011;5044;48.652;9.250;2022-08-21T11:08:38;3.92;;;1.65;;
10009;SDS011;5044;48.652;9.250;2022-08-21T11:11:12;6.65;;;1.98;;
10009;SDS011;5044;48.652;9.250;2022-08-21T11:13:42;3.78;;;1.55;;
10009;SDS011;5044;48.652;9.250;2022-08-21T11:16:21;3.47;;;1.80;;
10009;SDS011;5044;48.652;9.250;2022-08-21T11:18:53;5.18;;;1.90;;
10009;SDS011;5044;48.652;9.250;2022-08-21T11:21:31;4.20;;;2.00;;
10009;SDS011;5044;48.652;9.250;2022-08-21T11:24:03;6.90;;;2.25;;
10009;SDS011;5044;48.652;9.250;2022-08-21T11:26:44;5.05;;;1.63;;
10009;SDS011;5044;48.652;9.250;2022-08-21T11:29:19;2.67;;;1.80;;
10009;SDS011;5044;48.652;9.250;2022-08-21T11:31:52;3.75;;;1.63;;
10009;SDS011;5044;48.652;9.250;2022-08-21T11:34:34;3.72;;;2.00;;
10009;SDS011;5044;48.652;9.250;2022-08-21T11:37:13;3.72;;;1.90;;
10009;SDS011;5044;48.652;9.250;2022-08-21T11:39:50;5.10;;;1.75;;
10009;SDS011;5044;48.652;9.250;2022-08-21T11:42:24;4.78;;;2.22;;
10009;SDS011;5044;48.652;9.250;2022-08-21T11:45:02;3.08;;;1.83;;
10009;SDS011;5044;48.652;9.250;2022-08-21T11:47:46;3.05;;;1.70;;
10009;SDS011;5044;48.652;9.250;2022-08-21T11:50:23;2.97;;;2.00;;
10009;SDS011;5044;48.652;9.250;2022-08-21T11:52:56;4.35;;;2.20;;
10009;SDS011;5044;48.652;9.250;2022-08-21T11:55:30;6.97;;;1.80;;
10009;SDS011;5044;48.652;9.250;2022-08-21T11:58:04;3.90;;;1.70;;
10009;SDS011;5044;48.652;9.250;2022-08-21T12:00:35;5.90;;;1.95;;
10009;SDS011;5044;48.652;9.250;2022-08-21T12:03:07;4.95;;;1.80;;
10009;SDS011;5044;48.652;9.250;2022-08-21T12:05:38;3.50;;;1.90;;
10009;SDS011;5044;48.652;9.250;2022-08-21T12:08:12;5.28;;;1.85;;
10009;SDS011;5044;48.652;9.250;2022-08-21T12:10:41;4.68;;;1.77;;
10009;SDS011;5044;48.652;9.250;2022-08-21T12:13:22;3.95;;;2.00;;
10009;SDS011;5044;48.652;9.250;2022-08-21T12:18:23;3.42;;;1.73;;
10009;SDS011;5044;48.652;9.250;2022-08-21T12:21:03;2.75;;;1.67;;
10009;SDS011;5044;48.652;9.250;2022-08-21T12:23:47;3.00;;;1.60;;
10009;SDS011;5044;48.652;9.250;2022-08-21T12:26:22;4.63;;;2.08;;
10009;SDS011;5044;48.652;9.250;2022-08-21T12:29:02;2.53;;;1.65;;
10009;SDS011;5044;48.652;9.250;2022-08-21T12:31:32;3.20;;;1.50;;
10009;SDS011;5044;48.652;9.250;2022-08-21T12:34:01;2.92;;;1.73;;
10009;SDS011;5044;48.652;9.250;2022-08-21T12:36:40;3.42;;;1.65;;
10009;SDS011;5044;48.652;9.250;2022-08-21T12:39:15;3.88;;;1.60;;
10009;SDS011;5044;48.652;9.250;2022-08-21T12:41:50;3.57;;;1.70;;
10009;SDS011;5044;48.652;9.250;2022-08-21T12:44:22;3.88;;;1.88;;
10009;SDS011;5044;48.652;9.250;2022-08-21T12:47:03;1.85;;;1.40;;
10009;SDS011;5044;48.652;9.250;2022-08-21T12:49:34;4.28;;;1.70;;
10009;SDS011;5044;48.652;9.250;2022-08-21T12:54:46;2.97;;;1.73;;
10009;SDS011;5044;48.652;9.250;2022-08-21T12:57:18;3.95;;;1.65;;
10009;SDS011;5044;48.652;9.250;2022-08-21T12:59:51;3.58;;;2.00;;
10009;SDS011;5044;48.652;9.250;2022-08-21T13:02:19;4.32;;;1.63;;
10009;SDS011;5044;48.652;9.250;2022-08-21T13:04:50;3.67;;;1.83;;
10009;SDS011;5044;48.652;9.250;2022-08-21T13:07:22;2.97;;;1.50;;
10009;SDS011;5044;48.652;9.250;2022-08-21T13:09:55;6.40;;;1.63;;
10009;SDS011;5044;48.652;9.250;2022-08-21T13:12:24;3.55;;;1.10;;
10009;SDS011;5044;48.652;9.250;2022-08-21T13:14:54;1.45;;;1.10;;
10009;SDS011;5044;48.652;9.250;2022-08-21T13:17:24;1.70;;;1.08;;
10009;SDS011;5044;48.652;9.250;2022-08-21T13:19:53;1.90;;;1.10;;
10009;SDS011;5044;48.652;9.250;2022-08-21T13:22:21;1.30;;;0.88;;
10009;SDS011;5044;48.652;9.250;2022-08-21T13:24:48;2.70;;;1.30;;
10009;SDS011;5044;48.652;9.250;2022-08-21T13:27:21;6.18;;;2.17;;
10009;SDS011;5044;48.652;9.250;2022-08-21T13:30:00;2.47;;;1.42;;
10009;SDS011;5044;48.652;9.250;2022-08-21T13:32:30;2.50;;;1.55;;
10009;SDS011;5044;48.652;9.250;2022-08-21T13:34:59;5.00;;;1.35;;
10009;SDS011;5044;48.652;9.250;2022-08-21T13:37:39;2.28;;;1.40;;
10009;SDS011;5044;48.652;9.250;2022-08-21T13:40:09;3.80;;;1.83;;
10009;SDS011;5044;48.652;9.250;2022-08-21T13:42:40;3.25;;;1.45;;
10009;SDS011;5044;48.652;9.250;2022-08-21T13:45:13;3.38;;;1.48;;
10009;SDS011;5044;48.652;9.250;2022-08-21T13:47:43;4.15;;;1.92;;
10009;SDS011;5044;48.652;9.250;2022-08-21T13:50:13;4.63;;;1.80;;
10009;SDS011;5044;48.652;9.250;2022-08-21T13:52:47;2.93;;;1.27;;
10009;SDS011;5044;48.652;9.250;2022-08-21T13:55:19;3.05;;;1.17;;
10009;SDS011;5044;48.652;9.250;2022-08-21T13:57:51;4.47;;;1.38;;
10009;SDS011;5044;48.652;9.250;2022-08-21T14:00:25;3.78;;;1.85;;
10009;SDS011;5044;48.652;9.250;2022-08-21T14:02:59;5.53;;;2.30;;
10009;SDS011;5044;48.652;9.250;2022-08-21T14:05:29;3.97;;;1.73;;
10009;SDS011;5044;48.652;9.250;2022-08-21T14:08:00;2.72;;;1.95;;
10009;SDS011;5044;48.652;9.250;2022-08-21T14:10:31;3.28;;;1.30;;
10009;SDS011;5044;48.652;9.250;2022-08-21T14:13:03;2.67;;;1.42;;
10009;SDS011;5044;48.652;9.250;2022-08-21T14:15:32;3.55;;;1.50;;
10009;SDS011;5044;48.652;9.250;2022-08-21T14:18:08;2.67;;;1.50;;
10009;SDS011;5044;48.652;9.250;2022-08-21T14:20:39;4.38;;;1.73;;
10009;SDS011;5044;48.652;9.250;2022-08-21T14:23:06;2.35;;;1.40;;
10009;SDS011;5044;48.652;9.250;2022-08-21T14:25:37;5.38;;;1.50;;
10009;SDS011;5044;48.652;9.250;2022-08-21T14:28:10;5.22;;;1.77;;
10009;SDS011;5044;48.652;9.250;2022-08-21T14:30:46;2.17;;;1.65;;
10009;SDS011;5044;48.652;9.250;2022-08-21T14:33:16;7.90;;;1.98;;
10009;SDS011;5044;48.652;9.250;2022-08-21T14:35:47;3.95;;;2.38;;
10009;SDS011;5044;48.652;9.250;2022-08-21T14:38:15;3.88;;;1.92;;
10009;SDS011;5044;48.652;9.250;2022-08-21T14:40:44;7.50;;;1.75;;
10009;SDS011;5044;48.652;9.250;2022-08-21T14:43:16;4.25;;;1.60;;
10009;SDS011;5044;48.652;9.250;2022-08-21T14:45:44;2.28;;;1.90;;
10009;SDS011;5044;48.652;9.250;2022-08-21T14:48:11;4.47;;;1.75;;
10009;SDS011;5044;48.652;9.250;2022-08-21T14:50:38;3.33;;;1.70;;
10009;SDS011;5044;48.652;9.250;2022-08-21T14:53:06;4.30;;;1.70;;
10009;SDS011;5044;48.652;9.250;2022-08-21T14:55:34;4.22;;;2.05;;
10009;SDS011;5044;48.652;9.250;2022-08-21T14:58:23;2.65;;;1.55;;
10009;SDS011;5044;48.652;9.250;2022-08-21T15:00:51;7.05;;;1.58;;
10009;SDS011;5044;48.652;9.250;2022-08-21T15:03:20;2.70;;;1.60;;
10009;SDS011;5044;48.652;9.250;2022-08-21T15:05:47;4.53;;;1.90;;
10009;SDS011;5044;48.652;9.250;2022-08-21T15:08:15;2.13;;;1.40;;
10009;SDS011;5044;48.652;9.250;2022-08-21T15:10:42;3.75;;;1.70;;
10009;SDS011;5044;48.652;9.250;2022-08-21T15:13:09;3.05;;;1.95;;
10009;SDS011;5044;48.652;9.250;2022-08-21T15:15:40;3.70;;;1.75;;
10009;SDS011;5044;48.652;9.250;2022-08-21T15:18:10;2.13;;;1.40;;
10009;SDS011;5044;48.652;9.250;2022-08-21T15:20:37;5.93;;;1.80;;
10009;SDS011;5044;48.652;9.250;2022-08-21T15:23:05;4.03;;;1.33;;
10009;SDS011;5044;48.652;9.250;2022-08-21T15:25:33;2.53;;;1.50;;
10009;SDS011;5044;48.652;9.250;2022-08-21T15:28:00;4.47;;;1.88;;
10009;SDS011;5044;48.652;9.250;2022-08-21T15:30:27;3.03;;;1.60;;
10009;SDS011;5044;48.652;9.250;2022-08-21T15:32:57;7.45;;;1.92;;
10009;SDS011;5044;48.652;9.250;2022-08-21T15:35:24;3.55;;;1.58;;
10009;SDS011;5044;48.652;9.250;2022-08-21T15:37:51;3.40;;;2.22;;
10009;SDS011;5044;48.652;9.250;2022-08-21T15:40:19;3.72;;;1.70;;
10009;SDS011;5044;48.652;9.250;2022-08-21T15:42:46;4.90;;;1.70;;